Map

Track Data

SID SEASON NUMBER BASIN SUBBASIN NAME ISO_TIME NATURE LAT LON WMO_WIND WMO_PRES WMO_AGENCY TRACK_TYPE DIST2LAND LANDFALL IFLAG USA_AGENCY USA_ATCF_ID USA_LAT USA_LON USA_RECORD USA_STATUS USA_WIND USA_PRES USA_SSHS USA_R34_NE USA_R34_SE USA_R34_SW USA_R34_NW USA_R50_NE USA_R50_SE USA_R50_SW USA_R50_NW USA_R64_NE USA_R64_SE USA_R64_SW USA_R64_NW USA_POCI USA_ROCI USA_RMW USA_EYE TOKYO_LAT TOKYO_LON TOKYO_GRADE TOKYO_WIND TOKYO_PRES TOKYO_R50_DIR TOKYO_R50_LONG TOKYO_R50_SHORT TOKYO_R30_DIR TOKYO_R30_LONG TOKYO_R30_SHORT TOKYO_LAND CMA_LAT CMA_LON CMA_CAT CMA_WIND CMA_PRES HKO_LAT HKO_LON HKO_CAT HKO_WIND HKO_PRES NEWDELHI_LAT NEWDELHI_LON NEWDELHI_GRADE NEWDELHI_WIND NEWDELHI_PRES NEWDELHI_CI NEWDELHI_DP NEWDELHI_POCI REUNION_LAT REUNION_LON REUNION_TYPE REUNION_WIND REUNION_PRES REUNION_TNUM REUNION_CI REUNION_RMW REUNION_R34_NE REUNION_R34_SE REUNION_R34_SW REUNION_R34_NW REUNION_R50_NE REUNION_R50_SE REUNION_R50_SW REUNION_R50_NW REUNION_R64_NE REUNION_R64_SE REUNION_R64_SW REUNION_R64_NW BOM_LAT BOM_LON BOM_TYPE BOM_WIND BOM_PRES BOM_TNUM BOM_CI BOM_RMW BOM_R34_NE BOM_R34_SE BOM_R34_SW BOM_R34_NW BOM_R50_NE BOM_R50_SE BOM_R50_SW BOM_R50_NW BOM_R64_NE BOM_R64_SE BOM_R64_SW BOM_R64_NW BOM_ROCI BOM_POCI BOM_EYE BOM_POS_METHOD BOM_PRES_METHOD NADI_LAT NADI_LON NADI_CAT NADI_WIND NADI_PRES WELLINGTON_LAT WELLINGTON_LON WELLINGTON_WIND WELLINGTON_PRES DS824_LAT DS824_LON DS824_STAGE DS824_WIND DS824_PRES TD9636_LAT TD9636_LON TD9636_STAGE TD9636_WIND TD9636_PRES TD9635_LAT TD9635_LON TD9635_WIND TD9635_PRES TD9635_ROCI NEUMANN_LAT NEUMANN_LON NEUMANN_CLASS NEUMANN_WIND NEUMANN_PRES MLC_LAT MLC_LON MLC_CLASS MLC_WIND MLC_PRES USA_GUST BOM_GUST BOM_GUST_PER REUNION_GUST REUNION_GUST_PER USA_SEAHGT USA_SEARAD_NE USA_SEARAD_SE USA_SEARAD_SW USA_SEARAD_NW STORM_SPEED STORM_DIR
1998244N22267 1998 57 NA GM EARL 1998-08-31 12:00:00 TS 21.6000 -93.5000 30 1005 hurdat_atl main 333 333 O_____________ hurdat_atl AL051998 21.6000 -93.5000 TD 30 1005 -1 9 337
1998244N22267 1998 57 NA GM EARL 1998-08-31 15:00:00 TS 22.0026 -93.6847 main 365 365 P_____________ AL051998 22.0026 -93.6847 TD 32 1003 -1 9 341
1998244N22267 1998 57 NA GM EARL 1998-08-31 18:00:00 TS 22.4000 -93.8000 35 1002 hurdat_atl main 371 371 O_____________ hurdat_atl AL051998 22.4000 -93.8000 TS 35 1002 0 8 352
1998244N22267 1998 57 NA GM EARL 1998-08-31 21:00:00 TS 22.7925 -93.7951 main 384 384 P_____________ AL051998 22.7925 -93.7951 TS 35 1002 0 8 6
1998244N22267 1998 57 NA GM EARL 1998-09-01 00:00:00 TS 23.2000 -93.7000 35 1002 hurdat_atl main 410 410 O_____________ hurdat_atl AL051998 23.2000 -93.7000 TS 35 1002 0 9 14
1998244N22267 1998 57 NA GM EARL 1998-09-01 03:00:00 TS 23.6425 -93.5651 main 424 418 P_____________ AL051998 23.6425 -93.5651 TS 37 1001 0 9 17
1998244N22267 1998 57 NA GM EARL 1998-09-01 06:00:00 TS 24.1000 -93.4000 40 1001 hurdat_atl main 418 409 O_____________ hurdat_atl AL051998 24.1000 -93.4000 TS 40 1001 0 10 16
1998244N22267 1998 57 NA GM EARL 1998-09-01 09:00:00 TS 24.5574 -93.2722 main 408 408 P_____________ AL051998 24.5574 -93.2722 TS 42 1000 0 9 17
1998244N22267 1998 57 NA GM EARL 1998-09-01 12:00:00 TS 25.0000 -93.1000 45 999 hurdat_atl main 416 413 O_____________ hurdat_atl AL051998 25.0000 -93.1000 TS 45 999 0 9 25
1998244N22267 1998 57 NA GM EARL 1998-09-01 15:00:00 TS 25.3923 -92.8520 main 425 400 P_____________ AL051998 25.3923 -92.8520 TS 47 998 0 10 34
1998244N22267 1998 57 NA GM EARL 1998-09-01 18:00:00 TS 25.8000 -92.5000 50 998 hurdat_atl main 400 334 O_____________ hurdat_atl AL051998 25.8000 -92.5000 TS 50 998 0 12 39
1998244N22267 1998 57 NA GM EARL 1998-09-01 21:00:00 TS 26.3000 -92.0377 main 330 263 P_____________ AL051998 26.3000 -92.0377 TS 50 998 0 13 42
1998244N22267 1998 57 NA GM EARL 1998-09-02 00:00:00 TS 26.8000 -91.5000 50 998 hurdat_atl main 263 212 O_____________ hurdat_atl AL051998 26.8000 -91.5000 TS 50 998 0 13 45
1998244N22267 1998 57 NA GM EARL 1998-09-02 03:00:00 TS 27.2296 -90.9795 main 212 167 P_____________ AL051998 27.2296 -90.9795 TS 50 997 0 13 51
1998244N22267 1998 57 NA GM EARL 1998-09-02 06:00:00 TS 27.6000 -90.4000 50 996 hurdat_atl main 168 135 O_____________ hurdat_atl AL051998 27.6000 -90.4000 TS 50 996 0 13 59
1998244N22267 1998 57 NA GM EARL 1998-09-02 09:00:00 TS 27.9228 -89.6999 main 136 89 P_____________ AL051998 27.9228 -89.6999 TS 60 995 0 14 64
1998244N22267 1998 57 NA GM EARL 1998-09-02 12:00:00 TS 28.2000 -89.0000 70 994 hurdat_atl main 89 80 O_____________ hurdat_atl AL051998 28.2000 -89.0000 HU 70 994 1 12 65
1998244N22267 1998 57 NA GM EARL 1998-09-02 15:00:00 TS 28.4420 -88.4267 main 95 88 P_____________ AL051998 28.4420 -88.4267 HU 77 991 1 11 63
1998244N22267 1998 57 NA GM EARL 1998-09-02 18:00:00 TS 28.7000 -87.9000 85 988 hurdat_atl main 115 115 O_____________ hurdat_atl AL051998 28.7000 -87.9000 HU 85 988 2 11 58
1998244N22267 1998 57 NA GM EARL 1998-09-02 21:00:00 TS 29.0348 -87.3499 main 145 104 P_____________ AL051998 29.0348 -87.3499 HU 82 986 1 12 54
1998244N22267 1998 57 NA GM EARL 1998-09-03 00:00:00 TS 29.4000 -86.8000 80 985 hurdat_atl main 107 67 O_____________ hurdat_atl AL051998 29.4000 -86.8000 HU 80 985 1 11 54
1998244N22267 1998 57 NA GM EARL 1998-09-03 03:00:00 TS 29.7116 -86.2932 main 67 0 P_____________ AL051998 29.7116 -86.2932 HU 75 986 1 12 54
1998244N22267 1998 57 NA GM EARL 1998-09-03 06:00:00 TS 30.1000 -85.7000 70 987 hurdat_atl main 0 0 O_____________ hurdat_atl AL051998 30.1000 -85.7000 L HU 70 987 1 15 52
1998244N22267 1998 57 NA NA EARL 1998-09-03 09:00:00 TS 30.6704 -84.8883 main 0 0 P_____________ AL051998 30.6704 -84.8883 HU 57 988 0 19 51
1998244N22267 1998 57 NA NA EARL 1998-09-03 12:00:00 TS 31.3000 -84.0000 45 990 hurdat_atl main 0 0 O_____________ hurdat_atl AL051998 31.3000 -84.0000 TS 45 990 0 19 50
1998244N22267 1998 57 NA NA EARL 1998-09-03 15:00:00 TS 31.8789 -83.2140 main 0 0 P_____________ AL051998 31.8789 -83.2140 TS 42 992 0 17 51
1998244N22267 1998 57 NA NA EARL 1998-09-03 18:00:00 ET 32.4000 -82.4000 40 994 hurdat_atl main 0 0 O_____________ hurdat_atl AL051998 32.4000 -82.4000 EX 40 994 -4 18 59
1998244N22267 1998 57 NA NA EARL 1998-09-03 21:00:00 ET 32.7854 -81.4407 main 0 0 P_____________ AL051998 32.7854 -81.4407 EX 40 994 -4 18 63
1998244N22267 1998 57 NA NA EARL 1998-09-04 00:00:00 ET 33.2000 -80.5000 40 994 hurdat_atl main 0 0 O_____________ hurdat_atl AL051998 33.2000 -80.5000 EX 40 994 -4 17 54
1998244N22267 1998 57 NA NA EARL 1998-09-04 03:00:00 ET 33.8036 -79.7411 main 0 0 P_____________ AL051998 33.8036 -79.7411 EX 45 994 -4 18 44
1998244N22267 1998 57 NA NA EARL 1998-09-04 06:00:00 ET 34.5000 -79.0000 50 995 hurdat_atl main 0 0 O_____________ hurdat_atl AL051998 34.5000 -79.0000 EX 50 995 -4 20 42
1998244N22267 1998 57 NA NA EARL 1998-09-04 09:00:00 ET 35.2516 -78.1533 main 0 0 P_____________ AL051998 35.2516 -78.1533 EX 50 996 -4 20 46
1998244N22267 1998 57 NA NA EARL 1998-09-04 12:00:00 ET 35.9000 -77.2000 50 998 hurdat_atl main 0 0 O_____________ hurdat_atl AL051998 35.9000 -77.2000 EX 50 998 -4 18 59
1998244N22267 1998 57 NA NA EARL 1998-09-04 15:00:00 ET 36.1876 -76.2558 main 0 0 P_____________ AL051998 36.1876 -76.2558 EX 50 999 -4 19 71
1998244N22267 1998 57 NA NA EARL 1998-09-04 18:00:00 ET 36.5000 -75.0000 50 1000 hurdat_atl main 70 70 O_____________ hurdat_atl AL051998 36.5000 -75.0000 EX 50 1000 -4 26 69
1998244N22267 1998 57 NA NA EARL 1998-09-04 21:00:00 ET 37.1415 -73.2421 main 213 213 P_____________ AL051998 37.1415 -73.2421 EX 50 1000 -4 35 65
1998244N22267 1998 57 NA NA EARL 1998-09-05 00:00:00 ET 38.0000 -71.0000 50 1000 hurdat_atl main 330 330 O_____________ hurdat_atl AL051998 38.0000 -71.0000 EX 50 1000 -4 43 65
1998244N22267 1998 57 NA NA EARL 1998-09-05 03:00:00 ET 38.9312 -68.2867 main 343 339 P_____________ AL051998 38.9312 -68.2867 EX 50 999 -4 47 65
1998244N22267 1998 57 NA NA EARL 1998-09-05 06:00:00 ET 40.0000 -65.5000 50 998 hurdat_atl main 389 309 O_____________ hurdat_atl AL051998 40.0000 -65.5000 EX 50 998 -4 45 60
1998244N22267 1998 57 NA NA EARL 1998-09-05 09:00:00 ET 41.2013 -63.2023 main 308 282 P_____________ AL051998 41.2013 -63.2023 EX 50 994 -4 42 54
1998244N22267 1998 57 NA NA EARL 1998-09-05 12:00:00 ET 42.5000 -61.0000 50 990 hurdat_atl main 282 248 O_____________ hurdat_atl AL051998 42.5000 -61.0000 EX 50 990 -4 44 54
1998244N22267 1998 57 NA NA EARL 1998-09-05 15:00:00 ET 43.7954 -58.3228 main 259 213 P_____________ AL051998 43.7954 -58.3228 EX 50 988 -4 44 55
1998244N22267 1998 57 NA NA EARL 1998-09-05 18:00:00 ET 45.0000 -56.0000 50 986 hurdat_atl main 201 96 O_____________ hurdat_atl AL051998 45.0000 -56.0000 EX 50 986 -4 34 48
1998244N22267 1998 57 NA NA EARL 1998-09-05 21:00:00 ET 46.1032 -54.6880 main 86 0 P_____________ AL051998 46.1032 -54.6880 EX 50 982 -4 24 35
1998244N22267 1998 57 NA NA EARL 1998-09-06 00:00:00 ET 47.0000 -54.0000 50 979 hurdat_atl main 0 0 O_____________ hurdat_atl AL051998 47.0000 -54.0000 EX 50 979 -4 17 31
1998244N22267 1998 57 NA NA EARL 1998-09-06 03:00:00 ET 47.5733 -53.4184 main 0 0 P_____________ AL051998 47.5733 -53.4184 EX 50 973 -4 12 34
1998244N22267 1998 57 NA NA EARL 1998-09-06 06:00:00 ET 48.0000 -53.0000 50 968 hurdat_atl main 0 0 O_____________ hurdat_atl AL051998 48.0000 -53.0000 EX 50 968 -4 11 30
1998244N22267 1998 57 NA NA EARL 1998-09-06 09:00:00 ET 48.5360 -52.5737 main 29 29 P_____________ AL051998 48.5360 -52.5737 EX 52 966 -4 12 34
1998244N22267 1998 57 NA NA EARL 1998-09-06 12:00:00 ET 49.0000 -52.0000 55 964 hurdat_atl main 91 91 O_____________ hurdat_atl AL051998 49.0000 -52.0000 EX 55 964 -4 12 53
1998244N22267 1998 57 NA NA EARL 1998-09-06 15:00:00 ET 49.2882 -51.0736 main 164 164 P_____________ AL051998 49.2882 -51.0736 EX 55 965 -4 14 69
1998244N22267 1998 57 NA NA EARL 1998-09-06 18:00:00 ET 49.5000 -50.0000 55 966 hurdat_atl main 244 244 O_____________ hurdat_atl AL051998 49.5000 -50.0000 EX 55 966 -4 14 71
1998244N22267 1998 57 NA NA EARL 1998-09-06 21:00:00 ET 49.7469 -49.0727 main 312 312 P_____________ AL051998 49.7469 -49.0727 EX 55 967 -4 14 69
1998244N22267 1998 57 NA NA EARL 1998-09-07 00:00:00 ET 50.0000 -48.0000 55 968 hurdat_atl main 397 397 O_____________ hurdat_atl AL051998 50.0000 -48.0000 EX 55 968 -4 16 72
1998244N22267 1998 57 NA NA EARL 1998-09-07 03:00:00 ET 50.2474 -46.6479 main 498 498 P_____________ AL051998 50.2474 -46.6479 EX 52 969 -4 20 75
1998244N22267 1998 57 NA NA EARL 1998-09-07 06:00:00 ET 50.5000 -45.0000 50 970 hurdat_atl main 615 615 O_____________ hurdat_atl AL051998 50.5000 -45.0000 EX 50 970 -4 23 77
1998244N22267 1998 57 NA NA EARL 1998-09-07 09:00:00 ET 50.7875 -43.0786 main 753 753 P_____________ AL051998 50.7875 -43.0786 EX 47 974 -4 26 79
1998244N22267 1998 57 NA NA EARL 1998-09-07 12:00:00 ET 51.0000 -41.0000 45 978 hurdat_atl main 900 900 O_____________ hurdat_atl AL051998 51.0000 -41.0000 EX 45 978 -4 25 85
1998244N22267 1998 57 NA NA EARL 1998-09-07 15:00:00 ET 51.0298 -39.0697 main 1030 1030 P_____________ AL051998 51.0298 -39.0697 EX 45 978 -4 25 90
1998244N22267 1998 57 NA NA EARL 1998-09-07 18:00:00 ET 51.0000 -37.0000 45 978 hurdat_atl main 1076 1076 O_____________ hurdat_atl AL051998 51.0000 -37.0000 EX 45 978 -4 29 91
1998244N22267 1998 57 NA NA EARL 1998-09-07 21:00:00 ET 50.9683 -34.4579 main 1140 1140 P_____________ AL051998 50.9683 -34.4579 EX 42 980 -4 31 90
1998244N22267 1998 57 NA NA EARL 1998-09-08 00:00:00 ET 51.0000 -32.0000 40 982 hurdat_atl main 1220 1220 O_____________ hurdat_atl AL051998 51.0000 -32.0000 EX 40 982 -4 27 85
1998244N22267 1998 57 NA NA EARL 1998-09-08 03:00:00 ET 51.2042 -30.1400 main 1272 1236 P_____________ AL051998 51.2042 -30.1400 EX 40 982 -4 22 77
1998244N22267 1998 57 NA NA EARL 1998-09-08 06:00:00 ET 51.5000 -28.5000 40 982 hurdat_atl main 1230 1116 O_____________ hurdat_atl AL051998 51.5000 -28.5000 EX 40 982 -4 22 75
1998244N22267 1998 57 NA NA EARL 1998-09-08 09:00:00 ET 51.7706 -26.7893 main 1109 991 P_____________ AL051998 51.7706 -26.7893 EX 37 982 -4 22 77
1998244N22267 1998 57 NA NA EARL 1998-09-08 12:00:00 ET 52.0000 -25.0000 35 983 hurdat_atl main 984 O_____________ hurdat_atl AL051998 52.0000 -25.0000 EX 35 983 -4 22 78

About IBTrACS Database

This database is a web-friendly format of International Best Track Archive for Climate Stewardship (IBTrACS), a global best track data archive curated by NOAA dating back to 1842.

Updated: 2021-10-27